Terminal Aerodrome Forecast
Issued by NWS

Home | Current Version | Previous Version | Text Only | Print | Product List | Glossary On
Versions: 1 2 3 4 5 6 7 8 9 10 11 12 13 14 15 16 17 18 19 20 21 22 23 24
000
FTUS45 KRIW 011100
TAFPNA
TAF
KPNA 011126Z 0112/0212 31007KT P6SM FEW060
     FM011500 30014G24KT P6SM SCT060
     FM020200 31008KT P6SM FEW060
      AMD LTD TO CLD VIS AND WIND=

USA.gov is the U.S. government's official web portal to all federal, state and local government web resources and services.